sensor_id;sensor_type;location;lat;lon;timestamp;pressure;altitude;pressure_sealevel;temperature
80496;BMP180;69819;48.798;11.770;2023-08-06T00:00:28;96761.00;;;19.10
80496;BMP180;69819;48.798;11.770;2023-08-06T00:02:54;96755.00;;;19.10
80496;BMP180;69819;48.798;11.770;2023-08-06T00:05:20;96744.00;;;19.10
80496;BMP180;69819;48.798;11.770;2023-08-06T00:07:49;96716.00;;;19.10
80496;BMP180;69819;48.798;11.770;2023-08-06T00:10:16;96756.00;;;19.10
80496;BMP180;69819;48.798;11.770;2023-08-06T00:12:45;96766.00;;;19.00
80496;BMP180;69819;48.798;11.770;2023-08-06T00:15:12;96770.00;;;19.00
80496;BMP180;69819;48.798;11.770;2023-08-06T00:17:38;96744.00;;;19.00
80496;BMP180;69819;48.798;11.770;2023-08-06T00:20:05;96758.00;;;19.00
80496;BMP180;69819;48.798;11.770;2023-08-06T00:22:36;96758.00;;;19.00
80496;BMP180;69819;48.798;11.770;2023-08-06T00:25:04;96732.00;;;19.00
80496;BMP180;69819;48.798;11.770;2023-08-06T00:27:31;96753.00;;;19.00
80496;BMP180;69819;48.798;11.770;2023-08-06T00:29:58;96758.00;;;19.00
80496;BMP180;69819;48.798;11.770;2023-08-06T00:32:24;96756.00;;;19.00
80496;BMP180;69819;48.798;11.770;2023-08-06T00:34:50;96750.00;;;19.00
80496;BMP180;69819;48.798;11.770;2023-08-06T00:37:17;96759.00;;;18.90
80496;BMP180;69819;48.798;11.770;2023-08-06T00:39:43;96744.00;;;18.90
80496;BMP180;69819;48.798;11.770;2023-08-06T00:42:11;96749.00;;;18.90
80496;BMP180;69819;48.798;11.770;2023-08-06T00:44:38;96759.00;;;18.90
80496;BMP180;69819;48.798;11.770;2023-08-06T00:47:06;96762.00;;;18.90
80496;BMP180;69819;48.798;11.770;2023-08-06T00:49:32;96748.00;;;18.80
80496;BMP180;69819;48.798;11.770;2023-08-06T00:51:59;96744.00;;;18.90
80496;BMP180;69819;48.798;11.770;2023-08-06T00:54:26;96750.00;;;18.90
80496;BMP180;69819;48.798;11.770;2023-08-06T00:56:53;96767.00;;;18.80
80496;BMP180;69819;48.798;11.770;2023-08-06T00:59:19;96756.00;;;18.80
80496;BMP180;69819;48.798;11.770;2023-08-06T01:01:46;96754.00;;;18.80
80496;BMP180;69819;48.798;11.770;2023-08-06T01:04:12;96772.00;;;18.80
80496;BMP180;69819;48.798;11.770;2023-08-06T01:06:48;96769.00;;;18.70
80496;BMP180;69819;48.798;11.770;2023-08-06T01:12:26;96774.00;;;18.70
80496;BMP180;69819;48.798;11.770;2023-08-06T01:15:10;96762.00;;;18.60
80496;BMP180;69819;48.798;11.770;2023-08-06T01:17:39;96764.00;;;18.60
80496;BMP180;69819;48.798;11.770;2023-08-06T01:20:06;96757.00;;;18.60
80496;BMP180;69819;48.798;11.770;2023-08-06T01:22:32;96774.00;;;18.60
80496;BMP180;69819;48.798;11.770;2023-08-06T01:24:58;96767.00;;;18.60
80496;BMP180;69819;48.798;11.770;2023-08-06T01:30:16;96695.00;;;18.50
80496;BMP180;69819;48.798;11.770;2023-08-06T01:32:48;96760.00;;;18.60
80496;BMP180;69819;48.798;11.770;2023-08-06T01:35:17;96753.00;;;18.50
80496;BMP180;69819;48.798;11.770;2023-08-06T01:37:46;96762.00;;;18.50
80496;BMP180;69819;48.798;11.770;2023-08-06T01:40:13;96757.00;;;18.50
80496;BMP180;69819;48.798;11.770;2023-08-06T01:42:39;96733.00;;;18.50
80496;BMP180;69819;48.798;11.770;2023-08-06T01:45:07;96745.00;;;18.50
80496;BMP180;69819;48.798;11.770;2023-08-06T01:47:36;96753.00;;;18.50
80496;BMP180;69819;48.798;11.770;2023-08-06T01:50:02;96753.00;;;18.50
80496;BMP180;69819;48.798;11.770;2023-08-06T01:52:28;96727.00;;;18.50
80496;BMP180;69819;48.798;11.770;2023-08-06T01:54:55;96732.00;;;18.50
80496;BMP180;69819;48.798;11.770;2023-08-06T01:57:21;96735.00;;;18.40
80496;BMP180;69819;48.798;11.770;2023-08-06T01:59:47;96725.00;;;18.40
80496;BMP180;69819;48.798;11.770;2023-08-06T02:02:13;96755.00;;;18.40
80496;BMP180;69819;48.798;11.770;2023-08-06T02:04:39;96740.00;;;18.40
80496;BMP180;69819;48.798;11.770;2023-08-06T02:07:05;96749.00;;;18.30
80496;BMP180;69819;48.798;11.770;2023-08-06T02:09:31;96728.00;;;18.30
80496;BMP180;69819;48.798;11.770;2023-08-06T02:11:56;96750.00;;;18.30
80496;BMP180;69819;48.798;11.770;2023-08-06T02:14:22;96741.00;;;18.30
80496;BMP180;69819;48.798;11.770;2023-08-06T02:16:48;96747.00;;;18.20
80496;BMP180;69819;48.798;11.770;2023-08-06T02:19:15;96742.00;;;18.20
80496;BMP180;69819;48.798;11.770;2023-08-06T02:21:41;96743.00;;;18.20
80496;BMP180;69819;48.798;11.770;2023-08-06T02:24:07;96733.00;;;18.20
80496;BMP180;69819;48.798;11.770;2023-08-06T02:26:33;96712.00;;;18.10
80496;BMP180;69819;48.798;11.770;2023-08-06T02:28:58;96728.00;;;18.10
80496;BMP180;69819;48.798;11.770;2023-08-06T02:31:24;96715.00;;;18.10
80496;BMP180;69819;48.798;11.770;2023-08-06T02:33:50;96662.00;;;18.10
80496;BMP180;69819;48.798;11.770;2023-08-06T02:36:16;96717.00;;;18.00
80496;BMP180;69819;48.798;11.770;2023-08-06T02:38:42;96713.00;;;18.00
80496;BMP180;69819;48.798;11.770;2023-08-06T02:41:08;96704.00;;;18.00
80496;BMP180;69819;48.798;11.770;2023-08-06T02:43:33;96692.00;;;18.00
80496;BMP180;69819;48.798;11.770;2023-08-06T02:46:00;96700.00;;;18.00
80496;BMP180;69819;48.798;11.770;2023-08-06T02:48:27;96701.00;;;18.00
80496;BMP180;69819;48.798;11.770;2023-08-06T02:50:56;96685.00;;;18.00
80496;BMP180;69819;48.798;11.770;2023-08-06T02:53:22;96701.00;;;18.00
80496;BMP180;69819;48.798;11.770;2023-08-06T02:55:48;96693.00;;;18.00
80496;BMP180;69819;48.798;11.770;2023-08-06T02:58:15;96697.00;;;18.00
80496;BMP180;69819;48.798;11.770;2023-08-06T03:00:41;96672.00;;;18.00
80496;BMP180;69819;48.798;11.770;2023-08-06T03:03:08;96684.00;;;18.00
80496;BMP180;69819;48.798;11.770;2023-08-06T03:05:34;96654.00;;;17.90
80496;BMP180;69819;48.798;11.770;2023-08-06T03:08:00;96683.00;;;17.90
80496;BMP180;69819;48.798;11.770;2023-08-06T03:10:26;96668.00;;;17.90
80496;BMP180;69819;48.798;11.770;2023-08-06T03:12:52;96659.00;;;17.90
80496;BMP180;69819;48.798;11.770;2023-08-06T03:15:18;96676.00;;;17.90
80496;BMP180;69819;48.798;11.770;2023-08-06T03:17:44;96675.00;;;17.90
80496;BMP180;69819;48.798;11.770;2023-08-06T03:20:10;96644.00;;;18.00
80496;BMP180;69819;48.798;11.770;2023-08-06T03:22:36;96671.00;;;18.00
80496;BMP180;69819;48.798;11.770;2023-08-06T03:25:03;96668.00;;;18.00
80496;BMP180;69819;48.798;11.770;2023-08-06T03:27:29;96650.00;;;18.00
80496;BMP180;69819;48.798;11.770;2023-08-06T03:29:55;96650.00;;;18.00
80496;BMP180;69819;48.798;11.770;2023-08-06T03:32:21;96660.00;;;18.00
80496;BMP180;69819;48.798;11.770;2023-08-06T03:34:47;96670.00;;;18.00
80496;BMP180;69819;48.798;11.770;2023-08-06T03:37:12;96668.00;;;17.90
80496;BMP180;69819;48.798;11.770;2023-08-06T03:39:38;96663.00;;;17.90
80496;BMP180;69819;48.798;11.770;2023-08-06T03:42:05;96667.00;;;17.90
80496;BMP180;69819;48.798;11.770;2023-08-06T03:44:31;96658.00;;;17.90
80496;BMP180;69819;48.798;11.770;2023-08-06T03:46:56;96660.00;;;17.90
80496;BMP180;69819;48.798;11.770;2023-08-06T03:49:22;96671.00;;;17.80
80496;BMP180;69819;48.798;11.770;2023-08-06T03:51:48;96676.00;;;17.80
80496;BMP180;69819;48.798;11.770;2023-08-06T03:54:14;96650.00;;;17.80
80496;BMP180;69819;48.798;11.770;2023-08-06T03:56:40;96684.00;;;17.80
80496;BMP180;69819;48.798;11.770;2023-08-06T03:59:07;96647.00;;;17.80
80496;BMP180;69819;48.798;11.770;2023-08-06T04:01:32;96680.00;;;17.70
80496;BMP180;69819;48.798;11.770;2023-08-06T04:03:58;96682.00;;;17.70
80496;BMP180;69819;48.798;11.770;2023-08-06T04:06:24;96660.00;;;17.70
80496;BMP180;69819;48.798;11.770;2023-08-06T04:08:50;96679.00;;;17.70
80496;BMP180;69819;48.798;11.770;2023-08-06T04:11:16;96650.00;;;17.70
80496;BMP180;69819;48.798;11.770;2023-08-06T04:13:45;96680.00;;;17.70
80496;BMP180;69819;48.798;11.770;2023-08-06T04:16:11;96665.00;;;17.70
80496;BMP180;69819;48.798;11.770;2023-08-06T04:18:38;96657.00;;;17.70
80496;BMP180;69819;48.798;11.770;2023-08-06T04:21:03;96664.00;;;17.80
80496;BMP180;69819;48.798;11.770;2023-08-06T04:23:29;96670.00;;;17.80
80496;BMP180;69819;48.798;11.770;2023-08-06T04:25:58;96661.00;;;17.80
80496;BMP180;69819;48.798;11.770;2023-08-06T04:28:24;96659.00;;;17.80
80496;BMP180;69819;48.798;11.770;2023-08-06T04:30:50;96601.00;;;17.80
80496;BMP180;69819;48.798;11.770;2023-08-06T04:33:16;96644.00;;;17.90
80496;BMP180;69819;48.798;11.770;2023-08-06T04:35:42;96611.00;;;17.90
80496;BMP180;69819;48.798;11.770;2023-08-06T04:38:07;96668.00;;;17.90
80496;BMP180;69819;48.798;11.770;2023-08-06T04:40:35;96679.00;;;17.90
80496;BMP180;69819;48.798;11.770;2023-08-06T04:43:03;96670.00;;;17.90
80496;BMP180;69819;48.798;11.770;2023-08-06T04:45:29;96663.00;;;17.90
80496;BMP180;69819;48.798;11.770;2023-08-06T04:47:55;96673.00;;;17.90
80496;BMP180;69819;48.798;11.770;2023-08-06T04:50:21;96659.00;;;17.90
80496;BMP180;69819;48.798;11.770;2023-08-06T04:52:47;96637.00;;;17.90
80496;BMP180;69819;48.798;11.770;2023-08-06T04:55:12;96675.00;;;18.00
80496;BMP180;69819;48.798;11.770;2023-08-06T04:57:38;96671.00;;;18.00
80496;BMP180;69819;48.798;11.770;2023-08-06T05:00:05;96671.00;;;18.00
80496;BMP180;69819;48.798;11.770;2023-08-06T05:02:31;96663.00;;;18.10
80496;BMP180;69819;48.798;11.770;2023-08-06T05:05:00;96617.00;;;18.10
80496;BMP180;69819;48.798;11.770;2023-08-06T05:07:26;96622.00;;;18.20
80496;BMP180;69819;48.798;11.770;2023-08-06T05:09:52;96668.00;;;18.20
80496;BMP180;69819;48.798;11.770;2023-08-06T05:12:19;96683.00;;;18.20
80496;BMP180;69819;48.798;11.770;2023-08-06T05:14:45;96673.00;;;18.30
80496;BMP180;69819;48.798;11.770;2023-08-06T05:17:11;96674.00;;;18.30
80496;BMP180;69819;48.798;11.770;2023-08-06T05:19:37;96617.00;;;18.30
80496;BMP180;69819;48.798;11.770;2023-08-06T05:22:03;96678.00;;;18.30
80496;BMP180;69819;48.798;11.770;2023-08-06T05:24:29;96645.00;;;18.40
80496;BMP180;69819;48.798;11.770;2023-08-06T05:26:54;96677.00;;;18.40
80496;BMP180;69819;48.798;11.770;2023-08-06T05:29:20;96660.00;;;18.40
80496;BMP180;69819;48.798;11.770;2023-08-06T05:31:46;96646.00;;;18.50
80496;BMP180;69819;48.798;11.770;2023-08-06T05:34:12;96660.00;;;18.50
80496;BMP180;69819;48.798;11.770;2023-08-06T05:36:38;96679.00;;;18.60
80496;BMP180;69819;48.798;11.770;2023-08-06T05:39:04;96673.00;;;18.60
80496;BMP180;69819;48.798;11.770;2023-08-06T05:41:29;96644.00;;;18.70
80496;BMP180;69819;48.798;11.770;2023-08-06T05:43:55;96625.00;;;18.80
80496;BMP180;69819;48.798;11.770;2023-08-06T05:46:21;96675.00;;;18.90
80496;BMP180;69819;48.798;11.770;2023-08-06T05:48:47;96682.00;;;19.00
80496;BMP180;69819;48.798;11.770;2023-08-06T05:51:13;96673.00;;;19.10
80496;BMP180;69819;48.798;11.770;2023-08-06T05:53:39;96676.00;;;19.20
80496;BMP180;69819;48.798;11.770;2023-08-06T05:56:05;96675.00;;;19.30
80496;BMP180;69819;48.798;11.770;2023-08-06T05:58:30;96671.00;;;19.60
80496;BMP180;69819;48.798;11.770;2023-08-06T06:00:56;96670.00;;;19.80
80496;BMP180;69819;48.798;11.770;2023-08-06T06:03:22;96670.00;;;20.20
80496;BMP180;69819;48.798;11.770;2023-08-06T06:05:48;96659.00;;;20.50
80496;BMP180;69819;48.798;11.770;2023-08-06T06:08:14;96635.00;;;20.80
80496;BMP180;69819;48.798;11.770;2023-08-06T06:10:41;96671.00;;;21.00
80496;BMP180;69819;48.798;11.770;2023-08-06T06:13:06;96629.00;;;21.10
80496;BMP180;69819;48.798;11.770;2023-08-06T06:15:32;96629.00;;;21.20
80496;BMP180;69819;48.798;11.770;2023-08-06T06:17:58;96672.00;;;21.30
80496;BMP180;69819;48.798;11.770;2023-08-06T06:20:24;96685.00;;;21.40
80496;BMP180;69819;48.798;11.770;2023-08-06T06:22:50;96682.00;;;21.40
80496;BMP180;69819;48.798;11.770;2023-08-06T06:25:16;96666.00;;;21.40
80496;BMP180;69819;48.798;11.770;2023-08-06T06:27:41;96674.00;;;21.40
80496;BMP180;69819;48.798;11.770;2023-08-06T06:30:08;96669.00;;;21.40
80496;BMP180;69819;48.798;11.770;2023-08-06T06:32:34;96660.00;;;21.40
80496;BMP180;69819;48.798;11.770;2023-08-06T06:35:00;96675.00;;;21.50
80496;BMP180;69819;48.798;11.770;2023-08-06T06:37:26;96654.00;;;21.50
80496;BMP180;69819;48.798;11.770;2023-08-06T06:39:52;96652.00;;;21.60
80496;BMP180;69819;48.798;11.770;2023-08-06T06:42:18;96655.00;;;21.60
80496;BMP180;69819;48.798;11.770;2023-08-06T06:44:44;96663.00;;;21.70
80496;BMP180;69819;48.798;11.770;2023-08-06T06:47:10;96602.00;;;21.90
80496;BMP180;69819;48.798;11.770;2023-08-06T06:49:35;96656.00;;;22.10
80496;BMP180;69819;48.798;11.770;2023-08-06T06:52:01;96655.00;;;22.30
80496;BMP180;69819;48.798;11.770;2023-08-06T06:54:27;96649.00;;;22.50
80496;BMP180;69819;48.798;11.770;2023-08-06T06:56:53;96626.00;;;22.70
80496;BMP180;69819;48.798;11.770;2023-08-06T06:59:19;96678.00;;;22.90
80496;BMP180;69819;48.798;11.770;2023-08-06T07:01:45;96572.00;;;23.20
80496;BMP180;69819;48.798;11.770;2023-08-06T07:04:11;96648.00;;;23.40
80496;BMP180;69819;48.798;11.770;2023-08-06T07:06:37;96661.00;;;23.70
80496;BMP180;69819;48.798;11.770;2023-08-06T07:09:03;96643.00;;;23.80
80496;BMP180;69819;48.798;11.770;2023-08-06T07:11:28;96641.00;;;23.80
80496;BMP180;69819;48.798;11.770;2023-08-06T07:13:58;96644.00;;;23.80
80496;BMP180;69819;48.798;11.770;2023-08-06T07:16:25;96649.00;;;23.80
80496;BMP180;69819;48.798;11.770;2023-08-06T07:18:53;96649.00;;;23.80
80496;BMP180;69819;48.798;11.770;2023-08-06T07:21:19;96643.00;;;23.90
80496;BMP180;69819;48.798;11.770;2023-08-06T07:23:45;96629.00;;;24.20
80496;BMP180;69819;48.798;11.770;2023-08-06T07:26:11;96641.00;;;24.60
80496;BMP180;69819;48.798;11.770;2023-08-06T07:28:37;96641.00;;;25.10
80496;BMP180;69819;48.798;11.770;2023-08-06T07:31:03;96639.00;;;25.50
80496;BMP180;69819;48.798;11.770;2023-08-06T07:33:29;96643.00;;;25.80
80496;BMP180;69819;48.798;11.770;2023-08-06T07:35:55;96640.00;;;26.20
80496;BMP180;69819;48.798;11.770;2023-08-06T07:38:21;96639.00;;;26.60
80496;BMP180;69819;48.798;11.770;2023-08-06T07:40:47;96640.00;;;27.00
80496;BMP180;69819;48.798;11.770;2023-08-06T07:43:13;96633.00;;;27.20
80496;BMP180;69819;48.798;11.770;2023-08-06T07:45:39;96643.00;;;27.40
80496;BMP180;69819;48.798;11.770;2023-08-06T07:48:05;96607.00;;;27.20
80496;BMP180;69819;48.798;11.770;2023-08-06T07:50:31;96636.00;;;27.40
80496;BMP180;69819;48.798;11.770;2023-08-06T07:52:57;96625.00;;;27.30
80496;BMP180;69819;48.798;11.770;2023-08-06T07:55:23;96636.00;;;27.20
80496;BMP180;69819;48.798;11.770;2023-08-06T07:57:53;96618.00;;;27.00
80496;BMP180;69819;48.798;11.770;2023-08-06T08:00:19;96642.00;;;26.90
80496;BMP180;69819;48.798;11.770;2023-08-06T08:02:45;96622.00;;;26.80
80496;BMP180;69819;48.798;11.770;2023-08-06T08:05:12;96642.00;;;26.60
80496;BMP180;69819;48.798;11.770;2023-08-06T08:07:37;96626.00;;;26.60
80496;BMP180;69819;48.798;11.770;2023-08-06T08:10:04;96627.00;;;26.50
80496;BMP180;69819;48.798;11.770;2023-08-06T08:12:30;96638.00;;;26.50
80496;BMP180;69819;48.798;11.770;2023-08-06T08:14:56;96602.00;;;26.40
80496;BMP180;69819;48.798;11.770;2023-08-06T08:17:22;96599.00;;;26.40
80496;BMP180;69819;48.798;11.770;2023-08-06T08:19:48;96606.00;;;26.30
80496;BMP180;69819;48.798;11.770;2023-08-06T08:22:14;96603.00;;;26.30
80496;BMP180;69819;48.798;11.770;2023-08-06T08:24:40;96599.00;;;26.20
80496;BMP180;69819;48.798;11.770;2023-08-06T08:27:06;96611.00;;;26.20
80496;BMP180;69819;48.798;11.770;2023-08-06T08:29:31;96610.00;;;26.20
80496;BMP180;69819;48.798;11.770;2023-08-06T08:31:58;96605.00;;;26.20
80496;BMP180;69819;48.798;11.770;2023-08-06T08:34:24;96601.00;;;26.40
80496;BMP180;69819;48.798;11.770;2023-08-06T08:36:50;96603.00;;;26.70
80496;BMP180;69819;48.798;11.770;2023-08-06T08:39:16;96602.00;;;27.00
80496;BMP180;69819;48.798;11.770;2023-08-06T08:41:42;96604.00;;;27.50
80496;BMP180;69819;48.798;11.770;2023-08-06T08:44:09;96603.00;;;28.00
80496;BMP180;69819;48.798;11.770;2023-08-06T08:46:38;96603.00;;;28.40
80496;BMP180;69819;48.798;11.770;2023-08-06T08:49:06;96600.00;;;28.70
80496;BMP180;69819;48.798;11.770;2023-08-06T08:51:34;96597.00;;;28.80
80496;BMP180;69819;48.798;11.770;2023-08-06T08:54:07;96586.00;;;28.80
80496;BMP180;69819;48.798;11.770;2023-08-06T08:56:35;96595.00;;;28.90
80496;BMP180;69819;48.798;11.770;2023-08-06T08:59:01;96597.00;;;29.00
80496;BMP180;69819;48.798;11.770;2023-08-06T09:01:28;96599.00;;;29.10
80496;BMP180;69819;48.798;11.770;2023-08-06T09:03:55;96605.00;;;29.20
80496;BMP180;69819;48.798;11.770;2023-08-06T09:06:26;96610.00;;;29.20
80496;BMP180;69819;48.798;11.770;2023-08-06T09:09:17;96605.00;;;29.20
80496;BMP180;69819;48.798;11.770;2023-08-06T09:11:48;96612.00;;;29.40
80496;BMP180;69819;48.798;11.770;2023-08-06T09:14:16;96616.00;;;29.40
80496;BMP180;69819;48.798;11.770;2023-08-06T09:16:43;96615.00;;;29.30
80496;BMP180;69819;48.798;11.770;2023-08-06T09:19:14;96580.00;;;29.20
80496;BMP180;69819;48.798;11.770;2023-08-06T09:21:44;96614.00;;;29.00
80496;BMP180;69819;48.798;11.770;2023-08-06T09:24:14;96609.00;;;28.80
80496;BMP180;69819;48.798;11.770;2023-08-06T09:26:43;96611.00;;;28.60
80496;BMP180;69819;48.798;11.770;2023-08-06T09:29:11;96615.00;;;28.70
80496;BMP180;69819;48.798;11.770;2023-08-06T09:31:50;96617.00;;;28.60
80496;BMP180;69819;48.798;11.770;2023-08-06T09:34:21;96630.00;;;28.50
80496;BMP180;69819;48.798;11.770;2023-08-06T09:36:53;96622.00;;;28.30
80496;BMP180;69819;48.798;11.770;2023-08-06T09:39:31;96616.00;;;28.00
80496;BMP180;69819;48.798;11.770;2023-08-06T09:41:59;96610.00;;;27.80
80496;BMP180;69819;48.798;11.770;2023-08-06T09:44:30;96622.00;;;27.60
80496;BMP180;69819;48.798;11.770;2023-08-06T09:46:59;96606.00;;;27.40
80496;BMP180;69819;48.798;11.770;2023-08-06T09:49:41;96598.00;;;27.20
80496;BMP180;69819;48.798;11.770;2023-08-06T09:52:14;96611.00;;;27.30
80496;BMP180;69819;48.798;11.770;2023-08-06T09:54:44;96602.00;;;27.40
80496;BMP180;69819;48.798;11.770;2023-08-06T09:57:12;96606.00;;;27.50
80496;BMP180;69819;48.798;11.770;2023-08-06T09:59:41;96607.00;;;27.60
80496;BMP180;69819;48.798;11.770;2023-08-06T10:02:13;96626.00;;;27.50
80496;BMP180;69819;48.798;11.770;2023-08-06T10:04:40;96617.00;;;27.40
80496;BMP180;69819;48.798;11.770;2023-08-06T10:07:08;96578.00;;;27.20
80496;BMP180;69819;48.798;11.770;2023-08-06T10:09:34;96611.00;;;26.90
80496;BMP180;69819;48.798;11.770;2023-08-06T10:12:00;96600.00;;;26.60
80496;BMP180;69819;48.798;11.770;2023-08-06T10:14:32;96612.00;;;26.30
80496;BMP180;69819;48.798;11.770;2023-08-06T10:17:00;96600.00;;;26.10
80496;BMP180;69819;48.798;11.770;2023-08-06T10:19:27;96597.00;;;25.80
80496;BMP180;69819;48.798;11.770;2023-08-06T10:22:11;96579.00;;;25.60
80496;BMP180;69819;48.798;11.770;2023-08-06T10:24:49;96610.00;;;25.40
80496;BMP180;69819;48.798;11.770;2023-08-06T10:30:31;96609.00;;;25.40
80496;BMP180;69819;48.798;11.770;2023-08-06T10:35:47;96582.00;;;25.80
80496;BMP180;69819;48.798;11.770;2023-08-06T10:38:22;96572.00;;;26.10
80496;BMP180;69819;48.798;11.770;2023-08-06T10:43:30;96594.00;;;26.70
80496;BMP180;69819;48.798;11.770;2023-08-06T10:45:59;96597.00;;;27.00
80496;BMP180;69819;48.798;11.770;2023-08-06T10:48:35;96582.00;;;27.20
80496;BMP180;69819;48.798;11.770;2023-08-06T10:51:09;96601.00;;;27.30
80496;BMP180;69819;48.798;11.770;2023-08-06T10:53:36;96592.00;;;27.30
80496;BMP180;69819;48.798;11.770;2023-08-06T10:56:12;96615.00;;;27.20
80496;BMP180;69819;48.798;11.770;2023-08-06T10:58:38;96596.00;;;27.10
80496;BMP180;69819;48.798;11.770;2023-08-06T11:01:03;96565.00;;;26.90
80496;BMP180;69819;48.798;11.770;2023-08-06T11:03:29;96612.00;;;26.60
80496;BMP180;69819;48.798;11.770;2023-08-06T11:05:57;96611.00;;;26.40
80496;BMP180;69819;48.798;11.770;2023-08-06T11:08:27;96614.00;;;26.20
80496;BMP180;69819;48.798;11.770;2023-08-06T11:10:53;96608.00;;;26.00
80496;BMP180;69819;48.798;11.770;2023-08-06T11:13:20;96594.00;;;25.90
80496;BMP180;69819;48.798;11.770;2023-08-06T11:15:47;96607.00;;;25.90
80496;BMP180;69819;48.798;11.770;2023-08-06T11:18:13;96612.00;;;25.80
80496;BMP180;69819;48.798;11.770;2023-08-06T11:20:39;96606.00;;;25.80
80496;BMP180;69819;48.798;11.770;2023-08-06T11:23:09;96582.00;;;25.80
80496;BMP180;69819;48.798;11.770;2023-08-06T11:25:44;96601.00;;;25.90
80496;BMP180;69819;48.798;11.770;2023-08-06T11:28:12;96600.00;;;26.00
80496;BMP180;69819;48.798;11.770;2023-08-06T11:30:38;96592.00;;;26.10
80496;BMP180;69819;48.798;11.770;2023-08-06T11:33:07;96598.00;;;26.10
80496;BMP180;69819;48.798;11.770;2023-08-06T11:35:36;96574.00;;;26.20
80496;BMP180;69819;48.798;11.770;2023-08-06T11:38:03;96605.00;;;26.30
80496;BMP180;69819;48.798;11.770;2023-08-06T11:40:29;96593.00;;;26.30
80496;BMP180;69819;48.798;11.770;2023-08-06T11:42:55;96590.00;;;26.40
80496;BMP180;69819;48.798;11.770;2023-08-06T11:45:27;96603.00;;;26.40
80496;BMP180;69819;48.798;11.770;2023-08-06T11:47:53;96600.00;;;26.40
80496;BMP180;69819;48.798;11.770;2023-08-06T11:50:26;96623.00;;;26.40
80496;BMP180;69819;48.798;11.770;2023-08-06T11:52:57;96653.00;;;26.30
80496;BMP180;69819;48.798;11.770;2023-08-06T11:55:25;96647.00;;;26.10
80496;BMP180;69819;48.798;11.770;2023-08-06T11:57:52;96606.00;;;25.90
80496;BMP180;69819;48.798;11.770;2023-08-06T12:00:18;96646.00;;;25.70
80496;BMP180;69819;48.798;11.770;2023-08-06T12:02:47;96651.00;;;25.40
80496;BMP180;69819;48.798;11.770;2023-08-06T12:07:47;96635.00;;;24.80
80496;BMP180;69819;48.798;11.770;2023-08-06T12:10:15;96620.00;;;24.50
80496;BMP180;69819;48.798;11.770;2023-08-06T12:12:41;96635.00;;;24.30
80496;BMP180;69819;48.798;11.770;2023-08-06T12:15:09;96638.00;;;24.00
80496;BMP180;69819;48.798;11.770;2023-08-06T12:17:36;96649.00;;;23.80
80496;BMP180;69819;48.798;11.770;2023-08-06T12:20:04;96609.00;;;23.70
80496;BMP180;69819;48.798;11.770;2023-08-06T12:22:32;96635.00;;;23.60
80496;BMP180;69819;48.798;11.770;2023-08-06T12:25:10;96641.00;;;23.60
80496;BMP180;69819;48.798;11.770;2023-08-06T12:27:43;96634.00;;;23.70
80496;BMP180;69819;48.798;11.770;2023-08-06T12:30:11;96644.00;;;23.70
80496;BMP180;69819;48.798;11.770;2023-08-06T12:32:38;96643.00;;;23.80
80496;BMP180;69819;48.798;11.770;2023-08-06T12:35:05;96639.00;;;23.70
80496;BMP180;69819;48.798;11.770;2023-08-06T12:37:33;96595.00;;;23.90
80496;BMP180;69819;48.798;11.770;2023-08-06T12:39:59;96606.00;;;23.90
80496;BMP180;69819;48.798;11.770;2023-08-06T12:42:25;96619.00;;;23.80
80496;BMP180;69819;48.798;11.770;2023-08-06T12:44:51;96636.00;;;23.90
80496;BMP180;69819;48.798;11.770;2023-08-06T12:47:18;96633.00;;;23.90
80496;BMP180;69819;48.798;11.770;2023-08-06T12:49:44;96642.00;;;24.00
80496;BMP180;69819;48.798;11.770;2023-08-06T12:52:10;96640.00;;;24.20
80496;BMP180;69819;48.798;11.770;2023-08-06T12:54:38;96639.00;;;24.40
80496;BMP180;69819;48.798;11.770;2023-08-06T12:57:05;96635.00;;;24.50
80496;BMP180;69819;48.798;11.770;2023-08-06T12:59:31;96631.00;;;24.60
80496;BMP180;69819;48.798;11.770;2023-08-06T13:01:59;96619.00;;;24.70
80496;BMP180;69819;48.798;11.770;2023-08-06T13:04:25;96632.00;;;24.70
80496;BMP180;69819;48.798;11.770;2023-08-06T13:06:51;96601.00;;;24.80
80496;BMP180;69819;48.798;11.770;2023-08-06T13:09:17;96654.00;;;24.80
80496;BMP180;69819;48.798;11.770;2023-08-06T13:11:43;96655.00;;;24.80
80496;BMP180;69819;48.798;11.770;2023-08-06T13:14:13;96650.00;;;24.80
80496;BMP180;69819;48.798;11.770;2023-08-06T13:16:42;96654.00;;;24.80
80496;BMP180;69819;48.798;11.770;2023-08-06T13:19:10;96663.00;;;24.70
80496;BMP180;69819;48.798;11.770;2023-08-06T13:24:15;96669.00;;;24.50
80496;BMP180;69819;48.798;11.770;2023-08-06T13:26:41;96667.00;;;24.40
80496;BMP180;69819;48.798;11.770;2023-08-06T13:29:07;96663.00;;;24.40
80496;BMP180;69819;48.798;11.770;2023-08-06T13:31:33;96666.00;;;24.30
80496;BMP180;69819;48.798;11.770;2023-08-06T13:33:59;96638.00;;;24.20
80496;BMP180;69819;48.798;11.770;2023-08-06T13:36:26;96664.00;;;24.10
80496;BMP180;69819;48.798;11.770;2023-08-06T13:38:52;96650.00;;;24.00
80496;BMP180;69819;48.798;11.770;2023-08-06T13:41:18;96659.00;;;23.90
80496;BMP180;69819;48.798;11.770;2023-08-06T13:43:44;96654.00;;;23.80
80496;BMP180;69819;48.798;11.770;2023-08-06T13:46:11;96637.00;;;23.80
80496;BMP180;69819;48.798;11.770;2023-08-06T13:48:46;96641.00;;;23.80
80496;BMP180;69819;48.798;11.770;2023-08-06T13:51:13;96648.00;;;23.80
80496;BMP180;69819;48.798;11.770;2023-08-06T13:53:40;96644.00;;;23.80
80496;BMP180;69819;48.798;11.770;2023-08-06T13:56:08;96630.00;;;23.90
80496;BMP180;69819;48.798;11.770;2023-08-06T13:58:35;96647.00;;;23.90
80496;BMP180;69819;48.798;11.770;2023-08-06T14:01:01;96690.00;;;23.90
80496;BMP180;69819;48.798;11.770;2023-08-06T14:03:27;96671.00;;;23.80
80496;BMP180;69819;48.798;11.770;2023-08-06T14:05:53;96684.00;;;23.70
80496;BMP180;69819;48.798;11.770;2023-08-06T14:08:22;96680.00;;;23.50
80496;BMP180;69819;48.798;11.770;2023-08-06T14:10:49;96625.00;;;23.30
80496;BMP180;69819;48.798;11.770;2023-08-06T14:13:15;96678.00;;;23.10
80496;BMP180;69819;48.798;11.770;2023-08-06T14:15:42;96684.00;;;23.10